Overseas Visayas — V7NE6 — position and weather

sailwx.info

Track history (hours):
 
Tides and Currents Weather Stations Pressure Air Temp Water Temp Dewpoint Dewpoint Depression Visibility Wind Speed Wind Dir Waves Ship Positions

Overseas Visayas

Last reported at 2018-Mar-22 02:32 UTC. Time now 2018-Apr-26 11:45 UTC.
Position N 30°59' W 118°29'.
Warning: this ship's position is 35 days out of date.

Length 228 m; draft 8.5 m.

Type: Ship (hazmat cat A). MMSI: 538002947.

Date/timePositionNaut miles runAvg speedWind from/ knotsBaromVisibWave heightAir tempDewpointWater temp
2018-Mar-22 02:32N 30°59' W 118°29'013.4
2018-Mar-22 02:30N 30°59' W 118°30'713.4
2018-Mar-22 02:00N 31°04' W 118°35'2213.2
2018-Mar-22 00:22N 31°23' W 118°46'2113.3
2018-Mar-21 22:46N 31°43' W 118°56'1 5.5
2018-Mar-21 22:30N 31°44' W 118°57'1 1.9
2018-Mar-21 22:00N 31°45' W 118°58'1 2.5
2018-Mar-21 21:30N 31°46' W 118°59'2 2.7
2018-Mar-21 20:52N 31°45' W 119°01'2 4.4
2018-Mar-21 20:19N 31°43' W 118°58'1 2.7
2018-Mar-21 20:00N 31°44' W 118°59'1 2.4
2018-Mar-21 19:30N 31°45' W 118°60'0 0.7
2018-Mar-21 19:00N 31°45' W 119°00'0 0.4
2018-Mar-21 18:30N 31°45' W 119°01'0 0.6
2018-Mar-21 18:00N 31°45' W 119°01'0 0.6
2018-Mar-21 17:29N 31°46' W 119°01'0 0.7
2018-Mar-21 17:00N 31°46' W 119°01'0 0.7
2018-Mar-21 16:30N 31°46' W 119°01'0 0.8
2018-Mar-21 16:00N 31°47' W 119°02'0 0.6
2018-Mar-21 15:30N 31°47' W 119°02'0 0.6
2018-Mar-21 15:00N 31°47' W 119°02'0 0.8
2018-Mar-21 14:26N 31°48' W 119°02'0 0.8
2018-Mar-21 13:56N 31°48' W 119°02'0 0.8
2018-Mar-21 13:29N 31°48' W 119°02'0 0.6
2018-Mar-21 12:47N 31°49' W 119°03'0 0.6
2018-Mar-21 12:30N 31°49' W 119°03'0 0.6
2018-Mar-21 12:00N 31°49' W 119°03'0 0.7
2018-Mar-21 11:30N 31°49' W 119°03'0 0.8
2018-Mar-21 10:59N 31°50' W 119°04'0 0.7
2018-Mar-21 10:30N 31°50' W 119°04'0 0.9
2018-Mar-21 10:00N 31°50' W 119°05'0 0.8
2018-Mar-21 09:30N 31°50' W 119°05'0 0.9
2018-Mar-21 09:00N 31°51' W 119°05'0 0.8
2018-Mar-21 08:28N 31°51' W 119°06'1 0.8
2018-Mar-21 07:10N 31°52' W 119°06'0 0.6
2018-Mar-21 07:00N 31°52' W 119°07'1 1.0
2018-Mar-21 06:28N 31°52' W 119°07'1 1.1
2018-Mar-21 05:28N 31°53' W 119°08'0 1.0
2018-Mar-21 04:59N 31°53' W 119°09'1 1.0
2018-Mar-21 03:56N 31°54' W 119°10'1 0.8
2018-Mar-21 03:08N 31°54' W 119°10'1 0.7
2018-Mar-21 01:30N 31°55' W 119°11'0 0.6
2018-Mar-21 00:46N 31°55' W 119°12'0 0.7
2018-Mar-21 00:30N 31°55' W 119°12'0 0.7
2018-Mar-21 00:00N 31°55' W 119°12'1 0.7
2018-Mar-20 22:38N 31°56' W 119°13'0 0.9
2018-Mar-20 22:30N 31°56' W 119°13'1 1.0
2018-Mar-20 21:36N 31°57' W 119°14'0 1.3
2018-Mar-20 21:28N 31°57' W 119°14'4 3.5
2018-Mar-20 20:12N 31°59' W 119°18'1 5.1
2018-Mar-20 19:59N 31°60' W 119°20'3 5.7
2018-Mar-20 19:30N 32°01' W 119°22'2 4.9
2018-Mar-20 19:00N 31°59' W 119°20'3 0.6
2018-Mar-20 14:08N 32°02' W 119°22'3 7.4
2018-Mar-20 13:42N 32°03' W 119°26'  
Track history (hours):
 
Tides and Currents Weather Stations Pressure Air Temp Water Temp Dewpoint Dewpoint Depression Visibility Wind Speed Wind Dir Waves Ship Positions

Overseas Visayas

Last reported at 2018-Mar-22 02:32 UTC. Time now 2018-Apr-26 11:45 UTC.
Position N 30°59' W 118°29'.
Warning: this ship's position is 35 days out of date.

Length 228 m; draft 8.5 m.

Type: Ship (hazmat cat A). MMSI: 538002947.

Date/timePositionNaut miles runAvg speedWind from/ knotsBaromVisibWave heightAir tempDewpointWater temp
2018-Mar-22 02:32N 30°59' W 118°29'013.4
2018-Mar-22 02:30N 30°59' W 118°30'713.4
2018-Mar-22 02:00N 31°04' W 118°35'2213.2
2018-Mar-22 00:22N 31°23' W 118°46'2113.3
2018-Mar-21 22:46N 31°43' W 118°56'1 5.5
2018-Mar-21 22:30N 31°44' W 118°57'1 1.9
2018-Mar-21 22:00N 31°45' W 118°58'1 2.5
2018-Mar-21 21:30N 31°46' W 118°59'2 2.7
2018-Mar-21 20:52N 31°45' W 119°01'2 4.4
2018-Mar-21 20:19N 31°43' W 118°58'1 2.7
2018-Mar-21 20:00N 31°44' W 118°59'1 2.4
2018-Mar-21 19:30N 31°45' W 118°60'0 0.7
2018-Mar-21 19:00N 31°45' W 119°00'0 0.4
2018-Mar-21 18:30N 31°45' W 119°01'0 0.6
2018-Mar-21 18:00N 31°45' W 119°01'0 0.6
2018-Mar-21 17:29N 31°46' W 119°01'0 0.7
2018-Mar-21 17:00N 31°46' W 119°01'0 0.7
2018-Mar-21 16:30N 31°46' W 119°01'0 0.8
2018-Mar-21 16:00N 31°47' W 119°02'0 0.6
2018-Mar-21 15:30N 31°47' W 119°02'0 0.6
2018-Mar-21 15:00N 31°47' W 119°02'0 0.8
2018-Mar-21 14:26N 31°48' W 119°02'0 0.8
2018-Mar-21 13:56N 31°48' W 119°02'0 0.8
2018-Mar-21 13:29N 31°48' W 119°02'0 0.6
2018-Mar-21 12:47N 31°49' W 119°03'0 0.6
2018-Mar-21 12:30N 31°49' W 119°03'0 0.6
2018-Mar-21 12:00N 31°49' W 119°03'0 0.7
2018-Mar-21 11:30N 31°49' W 119°03'0 0.8
2018-Mar-21 10:59N 31°50' W 119°04'0 0.7
2018-Mar-21 10:30N 31°50' W 119°04'0 0.9
2018-Mar-21 10:00N 31°50' W 119°05'0 0.8
2018-Mar-21 09:30N 31°50' W 119°05'0 0.9
2018-Mar-21 09:00N 31°51' W 119°05'0 0.8
2018-Mar-21 08:28N 31°51' W 119°06'1 0.8
2018-Mar-21 07:10N 31°52' W 119°06'0 0.6
2018-Mar-21 07:00N 31°52' W 119°07'1 1.0
2018-Mar-21 06:28N 31°52' W 119°07'1 1.1
2018-Mar-21 05:28N 31°53' W 119°08'0 1.0
2018-Mar-21 04:59N 31°53' W 119°09'1 1.0
2018-Mar-21 03:56N 31°54' W 119°10'1 0.8
2018-Mar-21 03:08N 31°54' W 119°10'1 0.7
2018-Mar-21 01:30N 31°55' W 119°11'0 0.6
2018-Mar-21 00:46N 31°55' W 119°12'0 0.7
2018-Mar-21 00:30N 31°55' W 119°12'0 0.7
2018-Mar-21 00:00N 31°55' W 119°12'1 0.7
2018-Mar-20 22:38N 31°56' W 119°13'0 0.9
2018-Mar-20 22:30N 31°56' W 119°13'1 1.0
2018-Mar-20 21:36N 31°57' W 119°14'0 1.3
2018-Mar-20 21:28N 31°57' W 119°14'4 3.5
2018-Mar-20 20:12N 31°59' W 119°18'1 5.1
2018-Mar-20 19:59N 31°60' W 119°20'3 5.7
2018-Mar-20 19:30N 32°01' W 119°22'2 4.9
2018-Mar-20 19:00N 31°59' W 119°20'3 0.6
2018-Mar-20 14:08N 32°02' W 119°22'3 7.4
2018-Mar-20 13:42N 32°03' W 119°26'  

Dump ship's entire track history